createdAt,value
2019-03-03T00:01:55.162Z,35.50
2019-03-03T00:04:58.663Z,39.77
2019-03-03T00:08:02.105Z,39.23
2019-03-03T00:11:06.588Z,38.30
2019-03-03T00:14:09.992Z,33.77
2019-03-03T00:17:13.389Z,38.53
2019-03-03T00:20:16.988Z,40.37
2019-03-03T00:23:20.388Z,41.00
2019-03-03T00:26:23.792Z,46.27
2019-03-03T00:29:27.195Z,36.07
2019-03-03T00:32:30.591Z,38.37
2019-03-03T00:35:34.132Z,44.40
2019-03-03T00:38:59.743Z,41.27
2019-03-03T00:42:31.488Z,35.80
2019-03-03T00:46:05.165Z,40.37
2019-03-03T00:49:30.304Z,46.93
2019-03-03T00:52:56.681Z,48.10
2019-03-03T00:56:06.493Z,43.53
2019-03-03T00:59:35.069Z,49.63
2019-03-03T01:02:50.619Z,44.90
2019-03-03T01:06:28.711Z,41.97
2019-03-03T01:09:40.692Z,46.47
2019-03-03T01:13:06.372Z,51.77
2019-03-03T01:16:18.829Z,48.33
2019-03-03T01:19:41.612Z,46.35
2019-03-03T01:23:11.120Z,57.53
2019-03-03T01:26:14.792Z,47.23
2019-03-03T01:29:18.239Z,45.23
2019-03-03T01:32:21.800Z,47.87
2019-03-03T01:35:25.308Z,46.53
2019-03-03T01:38:28.840Z,45.33
2019-03-03T01:41:32.312Z,47.43
2019-03-03T01:44:35.748Z,48.53
2019-03-03T01:47:39.311Z,53.20
2019-03-03T01:50:42.816Z,50.52
2019-03-03T01:53:46.252Z,50.05
2019-03-03T01:56:49.722Z,48.97
2019-03-03T01:59:53.256Z,47.75
2019-03-03T02:02:57.034Z,50.45
2019-03-03T02:06:00.536Z,53.13
2019-03-03T02:09:09.292Z,57.17
2019-03-03T02:12:13.063Z,57.67
2019-03-03T02:15:16.569Z,48.02
2019-03-03T02:18:19.963Z,51.88
2019-03-03T02:21:23.568Z,55.92
2019-03-03T02:24:27.013Z,50.73
2019-03-03T02:28:00.902Z,53.20
2019-03-03T02:31:06.047Z,60.12
2019-03-03T02:34:08.872Z,59.30
2019-03-03T02:37:14.488Z,73.78
2019-03-03T02:40:17.699Z,67.08
2019-03-03T02:43:20.405Z,63.83
2019-03-03T02:46:24.911Z,71.25
2019-03-03T02:49:29.529Z,69.20
2019-03-03T02:52:34.205Z,73.90
2019-03-03T02:55:36.926Z,82.05
2019-03-03T02:58:39.643Z,76.87
2019-03-03T03:01:48.251Z,76.57
2019-03-03T03:04:52.871Z,89.83
2019-03-03T03:17:15.754Z,89.32
2019-03-03T03:20:32.671Z,89.07
2019-03-03T03:24:07.188Z,95.57
2019-03-03T03:27:25.837Z,101.92
2019-03-03T03:30:50.683Z,94.55
2019-03-03T03:34:10.863Z,92.15
2019-03-03T03:37:39.067Z,99.35
2019-03-03T03:40:56.364Z,91.47
2019-03-03T03:44:18.932Z,100.00
2019-03-03T03:47:48.828Z,86.22
2019-03-03T03:50:58.619Z,103.67
2019-03-03T03:54:14.821Z,84.67
2019-03-03T03:57:35.778Z,90.05
2019-03-03T04:01:01.252Z,97.85
2019-03-03T04:04:15.258Z,101.78
2019-03-03T04:07:38.922Z,90.40
2019-03-03T04:10:57.008Z,108.42
2019-03-03T04:14:28.268Z,112.92
2019-03-03T04:17:55.388Z,96.08
2019-03-03T04:21:17.257Z,89.07
2019-03-03T04:24:41.853Z,100.85
2019-03-03T04:28:07.127Z,100.67
2019-03-03T04:31:32.315Z,97.75
2019-03-03T04:35:04.007Z,93.85
2019-03-03T04:38:26.139Z,110.48
2019-03-03T04:41:45.083Z,98.20
2019-03-03T04:45:07.778Z,99.52
2019-03-03T04:48:44.018Z,106.95
2019-03-03T04:52:06.348Z,106.22
2019-03-03T04:55:27.222Z,99.15
2019-03-03T04:58:53.718Z,86.97
2019-03-03T05:02:09.438Z,91.55
2019-03-03T05:05:22.145Z,88.60
2019-03-03T05:08:41.489Z,93.17
2019-03-03T05:12:38.082Z,84.35
2019-03-03T05:16:13.005Z,86.53
2019-03-03T05:19:36.869Z,76.00
2019-03-03T05:22:39.822Z,77.62
2019-03-03T05:25:42.673Z,67.53
2019-03-03T05:28:45.422Z,70.78
2019-03-03T05:31:50.018Z,73.67
2019-03-03T05:34:54.971Z,71.42
2019-03-03T05:37:57.823Z,75.50
2019-03-03T05:41:01.845Z,67.22
2019-03-03T05:44:05.709Z,68.22
2019-03-03T05:47:08.424Z,72.97
2019-03-03T05:50:11.351Z,62.25
2019-03-03T05:53:16.898Z,56.63
2019-03-03T05:56:19.718Z,71.90
2019-03-03T05:59:24.674Z,60.17
2019-03-03T06:02:27.562Z,61.02
2019-03-03T06:05:31.413Z,57.85
2019-03-03T06:08:36.270Z,60.30
2019-03-03T06:11:41.203Z,56.68
2019-03-03T06:14:45.170Z,50.67
2019-03-03T06:17:50.793Z,50.52
2019-03-03T06:20:53.707Z,56.33
2019-03-03T06:23:58.259Z,49.70
2019-03-03T06:27:03.109Z,43.80
2019-03-03T06:30:07.202Z,45.88
2019-03-03T06:33:09.918Z,41.50
2019-03-03T06:36:14.445Z,38.50
2019-03-03T06:39:17.455Z,38.65
2019-03-03T06:42:20.374Z,36.08
2019-03-03T06:45:24.198Z,37.00
2019-03-03T06:48:29.018Z,42.20
2019-03-03T06:51:32.846Z,32.38
2019-03-03T06:54:37.577Z,38.08
2019-03-03T06:57:41.903Z,31.15
2019-03-03T07:00:44.678Z,35.08
2019-03-03T07:03:51.473Z,35.33
2019-03-03T07:06:55.998Z,34.85
2019-03-03T07:10:02.379Z,34.78
2019-03-03T07:13:08.208Z,33.95
2019-03-03T07:16:12.166Z,28.60
2019-03-03T07:19:16.086Z,28.80
2019-03-03T07:22:18.822Z,28.80
2019-03-03T07:25:25.376Z,30.23
2019-03-03T07:28:28.133Z,23.42
2019-03-03T07:31:32.669Z,26.55
2019-03-03T07:34:36.793Z,26.23
2019-03-03T07:37:41.650Z,26.17
2019-03-03T07:40:45.490Z,18.12
2019-03-03T07:43:49.406Z,25.88
2019-03-03T07:46:53.337Z,18.45
2019-03-03T07:49:58.240Z,17.73
2019-03-03T07:53:03.902Z,18.70
2019-03-03T07:56:08.401Z,17.62
2019-03-03T07:59:12.334Z,19.30
2019-03-03T08:02:18.071Z,15.18
2019-03-03T08:05:22.174Z,15.48
2019-03-03T08:08:28.642Z,19.75
2019-03-03T08:11:31.362Z,17.12
2019-03-03T08:14:35.598Z,14.55
2019-03-03T08:17:40.550Z,15.63
2019-03-03T08:20:43.273Z,16.50
2019-03-03T08:23:48.910Z,13.28
2019-03-03T08:26:55.523Z,16.80
2019-03-03T08:30:00.333Z,13.08
2019-03-03T08:33:03.266Z,13.78
2019-03-03T08:36:07.166Z,11.20
2019-03-03T08:39:11.002Z,12.15
2019-03-03T08:42:34.164Z,10.68
2019-03-03T08:49:51.462Z,9.60
2019-03-03T08:53:31.622Z,10.35
2019-03-03T08:57:07.968Z,9.05
2019-03-03T09:00:25.645Z,12.43
2019-03-03T09:03:44.493Z,11.08
2019-03-03T09:07:07.249Z,11.20
2019-03-03T09:10:25.186Z,7.60
2019-03-03T09:13:51.058Z,13.93
2019-03-03T09:17:26.679Z,7.85
2019-03-03T09:20:41.742Z,8.70
2019-03-03T09:24:15.670Z,9.98
2019-03-03T09:27:36.520Z,9.80
2019-03-03T09:30:55.153Z,6.08
2019-03-03T09:38:18.169Z,8.50
2019-03-03T09:41:32.601Z,8.23
2019-03-03T09:44:46.517Z,9.78
2019-03-03T09:48:02.102Z,13.40
2019-03-03T09:51:24.398Z,8.83
2019-03-03T09:54:38.078Z,11.15
2019-03-03T09:58:03.510Z,13.70
2019-03-03T10:01:13.730Z,7.03
2019-03-03T10:04:39.147Z,7.92
2019-03-03T10:08:19.358Z,5.75
2019-03-03T10:11:44.659Z,12.35
2019-03-03T10:15:07.586Z,9.38
2019-03-03T10:18:37.297Z,10.90
2019-03-03T10:21:59.240Z,9.50
2019-03-03T10:25:40.862Z,11.12
2019-03-03T10:28:59.782Z,9.00
2019-03-03T10:32:32.894Z,8.88
2019-03-03T10:35:46.356Z,6.85
2019-03-03T10:39:15.034Z,13.45
2019-03-03T10:42:34.217Z,10.98
2019-03-03T10:46:13.449Z,13.93
2019-03-03T10:49:37.677Z,10.20
2019-03-03T10:53:07.701Z,10.85
2019-03-03T10:56:25.378Z,15.53
2019-03-03T10:59:37.610Z,14.40
2019-03-03T11:02:49.612Z,18.73
2019-03-03T11:06:20.914Z,14.70
2019-03-03T11:09:52.098Z,13.48
2019-03-03T11:13:14.866Z,14.95
2019-03-03T11:16:41.318Z,14.95
2019-03-03T11:20:07.491Z,11.95
2019-03-03T11:23:32.481Z,15.55
2019-03-03T11:27:11.290Z,16.05
2019-03-03T11:30:34.090Z,14.45
2019-03-03T11:34:05.526Z,13.80
2019-03-03T11:37:28.061Z,12.78
2019-03-03T11:40:59.058Z,15.43
2019-03-03T11:44:18.854Z,12.75
2019-03-03T11:47:51.374Z,17.35
2019-03-03T11:51:02.108Z,13.83
2019-03-03T11:54:10.781Z,13.88
2019-03-03T11:57:23.137Z,14.05
2019-03-03T12:00:44.167Z,11.90
2019-03-03T12:04:07.166Z,14.00
2019-03-03T12:07:33.701Z,11.30
2019-03-03T12:11:04.774Z,15.05
2019-03-03T12:14:27.031Z,14.15
2019-03-03T12:17:40.610Z,15.05
2019-03-03T12:20:58.618Z,11.57
2019-03-03T12:24:08.613Z,12.82
2019-03-03T12:27:48.157Z,10.18
2019-03-03T12:31:13.126Z,12.03
2019-03-03T12:34:26.399Z,13.28
2019-03-03T12:37:34.295Z,7.05
2019-03-03T12:40:48.226Z,8.00
2019-03-03T12:44:22.841Z,10.05
2019-03-03T12:48:00.235Z,15.15
2019-03-03T12:51:28.134Z,11.68
2019-03-03T12:54:52.674Z,12.88
2019-03-03T12:58:28.152Z,13.53
2019-03-03T13:02:01.203Z,7.83
2019-03-03T13:05:18.774Z,6.25
2019-03-03T13:08:47.036Z,8.83
2019-03-03T13:12:29.482Z,10.78
2019-03-03T13:15:51.329Z,15.23
2019-03-03T13:19:22.460Z,8.50
2019-03-03T13:22:43.668Z,16.42
2019-03-03T13:26:01.397Z,8.48
2019-03-03T13:29:17.917Z,13.43
2019-03-03T13:32:31.686Z,14.18
2019-03-03T13:35:54.121Z,16.73
2019-03-03T13:39:31.526Z,19.07
2019-03-03T13:42:47.355Z,10.88
2019-03-03T13:45:51.457Z,10.85
2019-03-03T13:48:54.246Z,13.05
2019-03-03T13:51:59.913Z,11.55
2019-03-03T13:55:02.898Z,10.10
2019-03-03T13:58:05.851Z,13.72
2019-03-03T14:01:13.278Z,17.35
2019-03-03T14:04:16.141Z,14.68
2019-03-03T14:07:18.866Z,13.58
2019-03-03T14:10:23.422Z,19.65
2019-03-03T14:13:27.374Z,13.60
2019-03-03T14:16:30.254Z,15.30
2019-03-03T14:19:34.919Z,15.65
2019-03-03T14:22:39.170Z,13.68
2019-03-03T14:25:44.023Z,14.75
2019-03-03T14:28:47.842Z,14.50
2019-03-03T14:31:51.780Z,14.40
2019-03-03T14:34:54.661Z,13.08
2019-03-03T14:37:57.540Z,19.00
2019-03-03T14:41:01.438Z,23.35
2019-03-03T14:44:05.470Z,10.23
2019-03-03T14:47:08.245Z,10.88
2019-03-03T14:50:13.742Z,11.63
2019-03-03T14:53:18.672Z,14.90
2019-03-03T14:56:22.561Z,16.75
2019-03-03T14:59:26.617Z,13.62
2019-03-03T15:02:29.346Z,16.65
2019-03-03T15:05:33.504Z,15.55
2019-03-03T15:08:38.169Z,18.60
2019-03-03T15:11:42.681Z,21.90
2019-03-03T15:14:50.145Z,17.50
2019-03-03T15:17:55.054Z,21.27
2019-03-03T15:20:58.177Z,17.75
2019-03-03T15:24:04.633Z,26.85
2019-03-03T15:27:12.126Z,22.32
2019-03-03T15:30:17.814Z,18.17
2019-03-03T15:33:22.529Z,13.10
2019-03-03T15:36:28.762Z,16.60
2019-03-03T15:39:32.902Z,18.10
2019-03-03T15:42:39.271Z,18.65
2019-03-03T15:45:43.031Z,17.10
2019-03-03T15:48:46.886Z,15.40
2019-03-03T15:51:50.650Z,18.35
2019-03-03T15:54:57.518Z,13.40
2019-03-03T15:58:02.046Z,15.43
2019-03-03T16:01:13.473Z,22.55
2019-03-03T16:04:22.663Z,16.27
2019-03-03T16:07:25.386Z,23.25
2019-03-03T16:10:30.080Z,13.32
2019-03-03T16:13:35.739Z,16.95
2019-03-03T16:16:40.598Z,16.23
2019-03-03T16:19:47.460Z,17.10
2019-03-03T16:22:51.314Z,17.85
2019-03-03T16:25:56.301Z,14.65
2019-03-03T16:29:02.037Z,19.82
2019-03-03T16:32:04.873Z,9.83
2019-03-03T16:35:10.141Z,17.70
2019-03-03T16:38:15.029Z,14.93
2019-03-03T16:41:19.686Z,16.15
2019-03-03T16:44:23.818Z,20.48
2019-03-03T16:47:27.679Z,16.97
2019-03-03T16:50:32.408Z,18.73
2019-03-03T16:53:38.108Z,18.82
2019-03-03T16:56:43.781Z,21.20
2019-03-03T16:59:46.637Z,17.05
2019-03-03T17:02:51.294Z,13.68
2019-03-03T17:05:55.113Z,17.82
2019-03-03T17:08:59.942Z,18.10
2019-03-03T17:12:02.834Z,21.07
2019-03-03T17:15:08.779Z,23.45
2019-03-03T17:18:12.906Z,16.10
2019-03-03T17:21:16.734Z,15.60
2019-03-03T17:24:20.580Z,23.05
2019-03-03T17:27:24.437Z,17.32
2019-03-03T17:30:30.173Z,24.15
2019-03-03T17:33:34.210Z,18.65
2019-03-03T17:36:38.362Z,21.37
2019-03-03T17:39:41.194Z,17.55
2019-03-03T17:42:44.099Z,16.32
2019-03-03T17:45:50.730Z,17.73
2019-03-03T17:48:54.553Z,15.55
2019-03-03T17:51:57.379Z,24.92
2019-03-03T17:55:02.445Z,23.25
2019-03-03T17:58:10.666Z,23.02
2019-03-03T18:01:15.277Z,22.25
2019-03-03T18:04:20.938Z,28.27
2019-03-03T18:07:26.662Z,26.15
2019-03-03T18:10:33.322Z,20.85
2019-03-03T18:13:37.870Z,26.70
2019-03-03T18:16:40.643Z,21.85
2019-03-03T18:19:44.466Z,21.97
2019-03-03T18:22:50.442Z,16.70
2019-03-03T18:25:56.161Z,22.62
2019-03-03T18:29:00.718Z,28.95
2019-03-03T18:32:06.407Z,21.68
2019-03-03T18:35:12.978Z,24.75
2019-03-03T18:38:15.910Z,22.00
2019-03-03T18:41:21.568Z,30.07
2019-03-03T18:44:26.522Z,21.05
2019-03-03T18:47:30.554Z,20.82
2019-03-03T18:50:34.486Z,22.98
2019-03-03T18:53:39.410Z,20.97
2019-03-03T18:56:45.637Z,20.82
2019-03-03T18:59:55.575Z,23.27
2019-03-03T19:02:59.652Z,19.75
2019-03-03T19:06:02.531Z,31.37
2019-03-03T19:09:09.398Z,23.27
2019-03-03T19:12:13.729Z,18.92
2019-03-03T19:15:17.158Z,16.82
2019-03-03T19:18:22.132Z,23.57
2019-03-03T19:21:26.224Z,20.75
2019-03-03T19:24:30.886Z,23.00
2019-03-03T19:27:36.410Z,22.00
2019-03-03T19:30:43.202Z,18.20
2019-03-03T19:33:50.178Z,23.55
2019-03-03T19:36:53.350Z,18.25
2019-03-03T19:39:57.210Z,20.48
2019-03-03T19:43:01.173Z,21.48
2019-03-03T19:46:07.370Z,22.98
2019-03-03T19:49:14.042Z,22.17
2019-03-03T19:52:19.721Z,19.98
2019-03-03T19:55:26.301Z,23.47
2019-03-03T19:58:30.258Z,27.20
2019-03-03T20:01:34.919Z,22.13
2019-03-03T20:04:41.218Z,29.27
2019-03-03T20:07:46.222Z,20.40
2019-03-03T20:10:49.153Z,17.35
2019-03-03T20:13:55.031Z,23.52
2019-03-03T20:16:57.926Z,20.57
2019-03-03T20:20:03.065Z,21.52
2019-03-03T20:23:08.037Z,26.62
2019-03-03T20:26:12.046Z,21.80
2019-03-03T20:29:15.280Z,24.10
2019-03-03T20:32:19.210Z,21.82
2019-03-03T20:35:23.859Z,18.37
2019-03-03T20:38:26.722Z,26.05
2019-03-03T20:41:29.765Z,20.35
2019-03-03T20:44:32.727Z,20.70
2019-03-03T20:47:38.774Z,20.72
2019-03-03T20:50:43.010Z,19.55
2019-03-03T20:53:48.714Z,20.75
2019-03-03T20:56:54.442Z,17.85
2019-03-03T20:59:58.565Z,18.70
2019-03-03T21:03:04.350Z,20.85
2019-03-03T21:06:08.291Z,20.82
2019-03-03T21:09:12.695Z,19.95
2019-03-03T21:12:16.979Z,22.60
2019-03-03T21:15:21.148Z,18.60
2019-03-03T21:18:23.867Z,20.82
2019-03-03T21:21:28.406Z,17.77
2019-03-03T21:24:33.542Z,16.40
2019-03-03T21:27:36.376Z,15.13
2019-03-03T21:30:41.218Z,15.03
2019-03-03T21:33:46.994Z,17.10
2019-03-03T21:36:51.085Z,13.38
2019-03-03T21:39:55.946Z,15.20
2019-03-03T21:43:00.566Z,13.60
2019-03-03T21:46:03.498Z,13.10
2019-03-03T21:49:06.822Z,18.65
2019-03-03T21:52:09.752Z,13.65
2019-03-03T21:55:15.421Z,16.25
2019-03-03T21:58:21.037Z,16.52
2019-03-03T22:01:25.620Z,15.93
2019-03-03T22:04:30.334Z,12.78
2019-03-03T22:07:33.167Z,13.13
2019-03-03T22:10:35.897Z,15.28
2019-03-03T22:13:38.810Z,11.83
2019-03-03T22:16:43.341Z,11.97
2019-03-03T22:19:48.378Z,17.07
2019-03-03T22:22:52.210Z,15.08
2019-03-03T22:25:56.133Z,13.05
2019-03-03T22:28:59.973Z,11.90
2019-03-03T22:32:05.710Z,12.35
2019-03-03T22:35:08.950Z,18.65
2019-03-03T22:38:11.903Z,10.50
2019-03-03T22:41:16.753Z,16.75
2019-03-03T22:48:52.624Z,14.38
2019-03-03T22:51:59.186Z,18.32
2019-03-03T22:55:02.158Z,16.37
2019-03-03T22:58:06.275Z,16.50
2019-03-03T23:01:14.546Z,15.93
2019-03-03T23:04:46.113Z,15.95
2019-03-03T23:07:58.330Z,15.18
2019-03-03T23:11:45.946Z,17.57
2019-03-03T23:15:15.017Z,17.10
2019-03-03T23:18:57.607Z,15.78
2019-03-03T23:22:47.640Z,13.60
2019-03-03T23:25:52.478Z,16.82
2019-03-03T23:28:58.210Z,18.35
2019-03-03T23:32:02.146Z,22.22
2019-03-03T23:35:06.398Z,13.72
2019-03-03T23:38:10.662Z,12.58
2019-03-03T23:41:15.418Z,14.55
2019-03-03T23:44:19.326Z,14.47
2019-03-03T23:47:24.211Z,17.42
2019-03-03T23:50:29.893Z,11.55
2019-03-03T23:53:34.478Z,15.60
2019-03-03T23:56:38.311Z,15.23
2019-03-03T23:59:41.146Z,15.28
